createdAt,value
2024-05-09T00:00:58.843Z,7.81
2024-05-09T00:02:15.689Z,7.80
2024-05-09T00:03:17.327Z,7.79
2024-05-09T00:04:19.171Z,7.81
2024-05-09T00:05:20.966Z,7.80
2024-05-09T00:06:22.534Z,7.80
2024-05-09T00:07:24.349Z,7.80
2024-05-09T00:08:26.009Z,7.79
2024-05-09T00:09:27.587Z,7.79
2024-05-09T00:10:35.657Z,7.79
2024-05-09T00:11:41.951Z,7.79
2024-05-09T00:12:43.506Z,7.79
2024-05-09T00:13:45.700Z,7.79
2024-05-09T00:14:47.293Z,7.79
2024-05-09T00:15:48.830Z,7.79
2024-05-09T00:16:50.417Z,7.78
2024-05-09T00:17:53.090Z,7.77
2024-05-09T00:18:54.725Z,7.76
2024-05-09T00:19:56.288Z,7.76
2024-05-09T00:20:58.691Z,7.76
2024-05-09T00:22:00.216Z,7.77
2024-05-09T00:23:01.956Z,7.76
2024-05-09T00:24:03.596Z,7.76
2024-05-09T00:25:05.369Z,7.76
2024-05-09T00:26:06.929Z,7.76
2024-05-09T00:27:10.092Z,7.75
2024-05-09T00:28:13.352Z,7.76
2024-05-09T00:29:15.215Z,7.75
2024-05-09T00:30:24.354Z,7.75
2024-05-09T00:31:35.593Z,7.75
2024-05-09T00:32:37.199Z,7.76
2024-05-09T00:33:39.057Z,7.75
2024-05-09T00:34:40.854Z,7.76
2024-05-09T00:35:42.563Z,7.75
2024-05-09T00:36:44.106Z,7.75
2024-05-09T00:37:45.869Z,7.75
2024-05-09T00:38:47.523Z,7.74
2024-05-09T00:39:49.070Z,7.65
2024-05-09T00:40:50.643Z,7.73
2024-05-09T00:41:52.353Z,7.71
2024-05-09T00:42:53.881Z,7.70
2024-05-09T00:43:55.559Z,7.69
2024-05-09T00:44:57.122Z,7.67
2024-05-09T00:46:01.220Z,7.66
2024-05-09T00:47:03.476Z,7.62
2024-05-09T00:48:08.661Z,7.59
2024-05-09T00:49:12.397Z,7.55
2024-05-09T00:50:19.324Z,7.55
2024-05-09T00:51:24.739Z,7.55
2024-05-09T00:52:27.435Z,7.53
2024-05-09T00:53:29.969Z,7.52
2024-05-09T00:54:32.619Z,7.51
2024-05-09T00:55:36.917Z,7.48
2024-05-09T00:56:40.780Z,7.46
2024-05-09T00:57:43.929Z,7.46
2024-05-09T00:58:46.727Z,7.46
2024-05-09T00:59:48.380Z,7.46
2024-05-09T01:00:50.315Z,7.46
2024-05-09T01:01:52.846Z,7.46
2024-05-09T01:02:54.543Z,7.46
2024-05-09T01:03:56.403Z,7.46
2024-05-09T01:04:58.380Z,7.45
2024-05-09T01:06:00.018Z,7.45
2024-05-09T01:07:01.623Z,7.46
2024-05-09T01:08:03.983Z,7.46
2024-05-09T01:09:05.821Z,7.46
2024-05-09T01:10:13.928Z,7.46
2024-05-09T01:11:20.215Z,7.44
2024-05-09T01:12:23.845Z,7.43
2024-05-09T01:13:25.675Z,7.42
2024-05-09T01:14:27.351Z,7.40
2024-05-09T01:15:28.937Z,7.38
2024-05-09T01:16:31.516Z,7.39
2024-05-09T01:17:33.689Z,7.38
2024-05-09T01:18:35.727Z,7.36
2024-05-09T01:19:37.553Z,7.35
2024-05-09T01:20:42.890Z,7.34
2024-05-09T01:21:46.284Z,7.30
2024-05-09T01:22:48.304Z,7.28
2024-05-09T01:23:49.889Z,7.25
2024-05-09T01:24:51.976Z,7.23
2024-05-09T01:25:53.678Z,7.20
2024-05-09T01:26:55.401Z,7.15
2024-05-09T01:27:56.972Z,7.13
2024-05-09T01:28:58.545Z,7.09
2024-05-09T01:30:00.149Z,7.07
2024-05-09T01:31:01.801Z,7.07
2024-05-09T01:32:04.162Z,7.06
2024-05-09T01:33:07.912Z,7.04
2024-05-09T01:34:11.346Z,7.02
2024-05-09T01:35:13.026Z,7.06
2024-05-09T01:36:14.585Z,7.06
2024-05-09T01:37:16.159Z,7.06
2024-05-09T01:38:19.006Z,7.06
2024-05-09T01:39:20.497Z,7.06
2024-05-09T01:40:28.689Z,6.99
2024-05-09T01:41:41.615Z,7.05
2024-05-09T01:42:43.635Z,7.06
2024-05-09T01:43:45.187Z,7.04
2024-05-09T01:44:46.878Z,6.99
2024-05-09T01:45:48.451Z,7.06
2024-05-09T01:46:50.062Z,7.04
2024-05-09T01:47:51.932Z,7.04
2024-05-09T01:48:53.620Z,7.03
2024-05-09T01:49:55.238Z,7.02
2024-05-09T01:50:58.848Z,6.99
2024-05-09T01:52:00.460Z,6.98
2024-05-09T01:53:02.224Z,6.96
2024-05-09T01:54:03.754Z,6.94
2024-05-09T01:55:08.477Z,6.93
2024-05-09T01:56:10.046Z,6.92
2024-05-09T01:57:11.719Z,6.90
2024-05-09T01:58:13.421Z,6.89
2024-05-09T01:59:15.105Z,6.88
2024-05-09T02:00:22.414Z,6.86
2024-05-09T02:01:55.535Z,6.83
2024-05-09T02:02:57.260Z,6.83
2024-05-09T02:03:59.132Z,6.81
2024-05-09T02:05:00.968Z,6.79
2024-05-09T02:06:02.967Z,6.78
2024-05-09T02:07:04.820Z,6.76
2024-05-09T02:08:06.670Z,6.75
2024-05-09T02:09:08.981Z,6.74
2024-05-09T02:10:16.453Z,6.73
2024-05-09T02:11:22.118Z,6.70
2024-05-09T02:12:23.915Z,6.69
2024-05-09T02:13:25.731Z,6.68
2024-05-09T02:14:27.481Z,6.67
2024-05-09T02:15:29.115Z,6.65
2024-05-09T02:16:30.610Z,6.65
2024-05-09T02:17:32.509Z,6.65
2024-05-09T02:18:34.371Z,6.64
2024-05-09T02:19:35.955Z,6.63
2024-05-09T02:20:41.436Z,6.61
2024-05-09T02:21:43.922Z,6.54
2024-05-09T02:22:45.503Z,6.61
2024-05-09T02:23:47.165Z,6.59
2024-05-09T02:24:48.684Z,6.59
2024-05-09T02:25:50.257Z,6.57
2024-05-09T02:26:52.120Z,6.54
2024-05-09T02:27:53.627Z,6.55
2024-05-09T02:28:55.314Z,6.54
2024-05-09T02:29:57.168Z,6.53
2024-05-09T02:30:58.721Z,6.53
2024-05-09T02:32:00.367Z,6.42
2024-05-09T02:33:02.235Z,6.52
2024-05-09T02:34:04.162Z,6.52
2024-05-09T02:35:06.051Z,6.53
2024-05-09T02:36:08.472Z,6.52
2024-05-09T02:37:10.032Z,6.52
2024-05-09T02:38:11.893Z,6.52
2024-05-09T02:39:13.876Z,6.53
2024-05-09T02:40:21.610Z,6.53
2024-05-09T02:41:27.538Z,6.53
2024-05-09T02:42:29.359Z,6.55
2024-05-09T02:43:30.935Z,6.55
2024-05-09T02:44:32.908Z,6.55
2024-05-09T02:45:34.417Z,6.56
2024-05-09T02:46:35.931Z,6.56
2024-05-09T02:47:38.086Z,6.57
2024-05-09T02:48:39.847Z,6.57
2024-05-09T02:49:41.529Z,6.51
2024-05-09T02:50:45.799Z,6.57
2024-05-09T02:51:47.515Z,6.59
2024-05-09T02:52:49.092Z,6.59
2024-05-09T02:53:50.720Z,6.60
2024-05-09T02:54:52.701Z,6.61
2024-05-09T02:55:54.232Z,6.61
2024-05-09T02:56:55.818Z,6.61
2024-05-09T02:57:57.780Z,6.62
2024-05-09T02:58:59.321Z,6.62
2024-05-09T03:00:01.072Z,6.62
2024-05-09T03:01:02.878Z,6.62
2024-05-09T03:02:04.536Z,6.63
2024-05-09T03:03:07.043Z,6.63
2024-05-09T03:04:09.164Z,6.62
2024-05-09T03:05:10.966Z,6.62
2024-05-09T03:06:12.518Z,6.62
2024-05-09T03:07:14.082Z,6.60
2024-05-09T03:08:15.808Z,6.59
2024-05-09T03:09:17.762Z,6.50
2024-05-09T03:10:25.398Z,6.58
2024-05-09T03:11:30.466Z,6.58
2024-05-09T03:12:32.041Z,6.57
2024-05-09T03:13:33.753Z,6.57
2024-05-09T03:14:35.335Z,6.57
2024-05-09T03:15:37.544Z,6.55
2024-05-09T03:16:39.073Z,6.47
2024-05-09T03:17:40.745Z,6.54
2024-05-09T03:18:42.516Z,6.55
2024-05-09T03:19:44.260Z,6.55
2024-05-09T03:20:45.999Z,6.56
2024-05-09T03:21:47.524Z,6.54
2024-05-09T03:22:49.039Z,6.54
2024-05-09T03:23:50.588Z,6.54
2024-05-09T03:24:52.416Z,6.55
2024-05-09T03:25:54.056Z,6.55
2024-05-09T03:26:56.224Z,6.54
2024-05-09T03:27:57.992Z,6.54
2024-05-09T03:28:59.531Z,6.56
2024-05-09T03:30:01.094Z,6.47
2024-05-09T03:31:02.801Z,6.59
2024-05-09T03:32:04.782Z,6.59
2024-05-09T03:33:09.589Z,6.60
2024-05-09T03:34:11.442Z,6.62
2024-05-09T03:35:13.018Z,6.56
2024-05-09T03:36:14.566Z,6.65
2024-05-09T03:37:16.087Z,6.67
2024-05-09T03:38:17.793Z,6.69
2024-05-09T03:39:19.542Z,6.69
2024-05-09T03:40:26.135Z,6.72
2024-05-09T03:41:28.751Z,6.73
2024-05-09T03:42:30.391Z,6.74
2024-05-09T03:43:31.983Z,6.75
2024-05-09T03:44:33.722Z,6.73
2024-05-09T03:45:35.281Z,6.75
2024-05-09T03:46:40.509Z,6.75
2024-05-09T03:47:42.435Z,6.76
2024-05-09T03:48:44.350Z,6.77
2024-05-09T03:49:46.196Z,6.78
2024-05-09T03:50:48.428Z,6.79
2024-05-09T03:51:50.217Z,6.80
2024-05-09T03:52:51.930Z,6.80
2024-05-09T03:53:53.566Z,6.82
2024-05-09T03:54:55.122Z,6.84
2024-05-09T03:55:56.846Z,6.85
2024-05-09T03:56:58.511Z,6.86
2024-05-09T03:58:00.160Z,6.86
2024-05-09T03:59:01.857Z,6.87
2024-05-09T04:00:05.548Z,6.87
2024-05-09T04:01:16.537Z,6.88
2024-05-09T04:02:18.250Z,6.89
2024-05-09T04:03:20.047Z,6.89
2024-05-09T04:04:21.967Z,6.92
2024-05-09T04:05:25.076Z,6.97
2024-05-09T04:06:27.590Z,6.97
2024-05-09T04:07:29.202Z,7.02
2024-05-09T04:08:31.162Z,7.05
2024-05-09T04:09:32.823Z,7.06
2024-05-09T04:10:35.374Z,7.07
2024-05-09T04:11:37.432Z,7.07
2024-05-09T04:12:39.219Z,7.08
2024-05-09T04:13:41.198Z,7.09
2024-05-09T04:14:42.805Z,7.12
2024-05-09T04:15:44.427Z,7.14
2024-05-09T04:16:45.985Z,7.17
2024-05-09T04:17:50.672Z,7.22
2024-05-09T04:18:52.694Z,7.26
2024-05-09T04:19:54.631Z,7.28
2024-05-09T04:20:56.215Z,7.35
2024-05-09T04:21:57.799Z,7.38
2024-05-09T04:22:59.367Z,7.42
2024-05-09T04:24:00.928Z,7.46
2024-05-09T04:25:02.552Z,7.49
2024-05-09T04:26:04.399Z,7.44
2024-05-09T04:27:06.029Z,7.63
2024-05-09T04:28:07.719Z,7.69
2024-05-09T04:29:09.479Z,7.76
2024-05-09T04:30:18.570Z,7.81
2024-05-09T04:31:23.452Z,7.87
2024-05-09T04:32:25.381Z,7.94
2024-05-09T04:33:28.648Z,8.00
2024-05-09T04:34:30.470Z,8.06
2024-05-09T04:35:34.421Z,8.13
2024-05-09T04:36:36.211Z,8.20
2024-05-09T04:37:37.966Z,8.27
2024-05-09T04:38:39.730Z,8.32
2024-05-09T04:39:41.350Z,8.32
2024-05-09T04:40:43.524Z,8.42
2024-05-09T04:41:45.257Z,8.47
2024-05-09T04:42:46.780Z,8.52
2024-05-09T04:43:50.141Z,8.57
2024-05-09T04:44:52.974Z,8.62
2024-05-09T04:45:55.784Z,8.66
2024-05-09T04:46:57.316Z,8.72
2024-05-09T04:47:59.083Z,8.75
2024-05-09T04:49:01.071Z,8.81
2024-05-09T04:50:03.590Z,8.84
2024-05-09T04:51:06.243Z,8.87
2024-05-09T04:52:07.752Z,8.93
2024-05-09T04:53:14.812Z,8.96
2024-05-09T04:54:26.347Z,9.02
2024-05-09T04:55:38.649Z,9.07
2024-05-09T04:56:40.289Z,9.12
2024-05-09T04:57:41.855Z,9.16
2024-05-09T04:58:43.364Z,9.20
2024-05-09T04:59:44.899Z,9.21
2024-05-09T05:00:46.517Z,9.24
2024-05-09T05:01:48.213Z,9.30
2024-05-09T05:02:49.938Z,9.33
2024-05-09T05:03:51.922Z,9.35
2024-05-09T05:04:54.073Z,9.40
2024-05-09T05:05:55.916Z,9.41
2024-05-09T05:06:59.736Z,9.44
2024-05-09T05:08:03.830Z,9.48
2024-05-09T05:09:05.649Z,9.49
2024-05-09T05:10:09.356Z,9.52
2024-05-09T05:11:13.776Z,9.57
2024-05-09T05:12:35.830Z,9.55
2024-05-09T05:13:40.110Z,9.67
2024-05-09T05:14:43.090Z,9.74
2024-05-09T05:15:47.577Z,9.81
2024-05-09T05:16:49.262Z,9.88
2024-05-09T05:17:50.965Z,9.94
2024-05-09T05:18:52.939Z,9.99
2024-05-09T05:19:56.240Z,10.03
2024-05-09T05:20:58.526Z,10.10
2024-05-09T05:22:00.161Z,10.14
2024-05-09T05:23:01.817Z,10.19
2024-05-09T05:24:03.689Z,10.23
2024-05-09T05:25:05.621Z,10.27
2024-05-09T05:26:07.159Z,10.33
2024-05-09T05:27:08.685Z,10.39
2024-05-09T05:28:10.373Z,10.43
2024-05-09T05:29:11.999Z,10.45
2024-05-09T05:30:21.482Z,10.44
2024-05-09T05:31:30.386Z,10.45
2024-05-09T05:32:32.140Z,10.44
2024-05-09T05:33:33.780Z,10.46
2024-05-09T05:34:35.371Z,10.49
2024-05-09T05:35:37.612Z,10.55
2024-05-09T05:36:39.141Z,10.62
2024-05-09T05:37:41.157Z,10.68
2024-05-09T05:38:43.012Z,10.73
2024-05-09T05:39:44.599Z,10.78
2024-05-09T05:40:48.691Z,10.83
2024-05-09T05:41:50.258Z,10.87
2024-05-09T05:42:51.819Z,10.90
2024-05-09T05:43:53.748Z,10.96
2024-05-09T05:44:55.268Z,11.01
2024-05-09T05:45:56.825Z,11.06
2024-05-09T05:46:58.333Z,11.10
2024-05-09T05:48:03.655Z,11.16
2024-05-09T05:49:05.410Z,11.21
2024-05-09T05:50:17.790Z,11.25
2024-05-09T05:51:26.215Z,11.33
2024-05-09T05:52:27.824Z,11.38
2024-05-09T05:53:29.441Z,11.43
2024-05-09T05:54:31.083Z,11.49
2024-05-09T05:55:32.642Z,11.56
2024-05-09T05:56:34.215Z,11.62
2024-05-09T05:57:35.939Z,11.65
2024-05-09T05:58:37.897Z,11.69
2024-05-09T05:59:39.761Z,11.73
2024-05-09T06:00:42.318Z,11.79
2024-05-09T06:01:44.560Z,11.84
2024-05-09T06:02:48.427Z,11.92
2024-05-09T06:03:50.423Z,11.97
2024-05-09T06:04:52.454Z,12.05
2024-05-09T06:05:54.204Z,12.11
2024-05-09T06:06:56.006Z,12.17
2024-05-09T06:07:57.664Z,12.20
2024-05-09T06:08:59.378Z,12.26
2024-05-09T06:10:01.013Z,12.30
2024-05-09T06:11:02.772Z,12.35
2024-05-09T06:12:05.007Z,12.41
2024-05-09T06:13:13.428Z,12.47
2024-05-09T06:14:15.740Z,12.53
2024-05-09T06:15:17.735Z,12.59
2024-05-09T06:16:19.310Z,12.65
2024-05-09T06:17:21.100Z,12.73
2024-05-09T06:18:23.385Z,12.79
2024-05-09T06:19:25.258Z,12.85
2024-05-09T06:20:34.460Z,12.89
2024-05-09T06:21:38.955Z,12.97
2024-05-09T06:22:40.582Z,13.01
2024-05-09T06:23:46.156Z,13.07
2024-05-09T06:24:47.751Z,13.14
2024-05-09T06:25:49.420Z,13.20
2024-05-09T06:26:50.980Z,13.26
2024-05-09T06:27:52.994Z,13.26
2024-05-09T06:28:54.563Z,13.38
2024-05-09T06:29:56.141Z,13.44
2024-05-09T06:30:57.622Z,13.48
2024-05-09T06:32:00.362Z,13.53
2024-05-09T06:33:04.335Z,13.60
2024-05-09T06:34:06.203Z,13.66
2024-05-09T06:35:07.895Z,13.70
2024-05-09T06:36:09.410Z,13.76
2024-05-09T06:37:10.982Z,13.82
2024-05-09T06:38:16.191Z,13.77
2024-05-09T06:39:17.885Z,13.89
2024-05-09T06:40:36.218Z,13.95
2024-05-09T06:41:42.796Z,14.01
2024-05-09T06:42:44.470Z,14.05
2024-05-09T06:43:46.118Z,14.09
2024-05-09T06:44:47.638Z,14.14
2024-05-09T06:45:52.031Z,14.21
2024-05-09T06:46:55.776Z,14.23
2024-05-09T06:47:59.879Z,14.25
2024-05-09T06:49:07.436Z,14.19
2024-05-09T06:50:16.331Z,14.30
2024-05-09T06:51:24.520Z,14.33
2024-05-09T06:52:26.334Z,14.38
2024-05-09T06:53:27.955Z,14.38
2024-05-09T06:54:30.421Z,14.33
2024-05-09T06:55:32.078Z,14.28
2024-05-09T06:56:35.052Z,14.26
2024-05-09T06:57:38.334Z,14.29
2024-05-09T06:58:40.848Z,14.34
2024-05-09T06:59:42.589Z,14.38
2024-05-09T07:00:44.309Z,14.41
2024-05-09T07:01:45.978Z,14.42
2024-05-09T07:02:47.789Z,14.45
2024-05-09T07:03:49.606Z,14.51
2024-05-09T07:04:51.355Z,14.60
2024-05-09T07:05:53.201Z,14.64
2024-05-09T07:06:54.776Z,14.77
2024-05-09T07:07:56.275Z,14.85
2024-05-09T07:08:57.881Z,14.95
2024-05-09T07:09:59.793Z,15.00
2024-05-09T07:11:01.453Z,15.04
2024-05-09T07:12:03.559Z,15.09
2024-05-09T07:13:12.568Z,15.14
2024-05-09T07:14:14.272Z,15.14
2024-05-09T07:15:15.930Z,15.23
2024-05-09T07:16:17.452Z,15.19
2024-05-09T07:17:19.384Z,15.23
2024-05-09T07:18:21.186Z,15.24
2024-05-09T07:19:22.999Z,15.21
2024-05-09T07:20:32.439Z,15.17
2024-05-09T07:21:38.831Z,15.08
2024-05-09T07:22:40.309Z,15.06
2024-05-09T07:23:43.609Z,15.05
2024-05-09T07:24:46.011Z,15.04
2024-05-09T07:25:47.828Z,15.06
2024-05-09T07:26:49.512Z,15.08
2024-05-09T07:27:51.053Z,15.06
2024-05-09T07:28:52.807Z,14.97
2024-05-09T07:29:54.373Z,15.00
2024-05-09T07:30:55.943Z,15.00
2024-05-09T07:31:57.783Z,14.98
2024-05-09T07:32:59.449Z,15.03
2024-05-09T07:34:01.268Z,15.09
2024-05-09T07:35:03.069Z,15.08
2024-05-09T07:36:04.936Z,15.03
2024-05-09T07:37:11.724Z,15.00
2024-05-09T07:38:13.534Z,15.03
2024-05-09T07:39:15.124Z,15.09
2024-05-09T07:40:24.968Z,15.13
2024-05-09T07:41:36.744Z,15.11
2024-05-09T07:42:38.491Z,15.13
2024-05-09T07:43:39.970Z,15.19
2024-05-09T07:44:41.671Z,15.28
2024-05-09T07:45:51.886Z,15.34
2024-05-09T07:53:29.650Z,15.73
2024-05-09T07:53:48.322Z,15.74
2024-05-09T07:54:53.224Z,15.73
2024-05-09T07:55:55.880Z,15.72
2024-05-09T07:56:57.918Z,15.71
2024-05-09T07:57:59.549Z,15.71
2024-05-09T07:59:01.047Z,15.72
2024-05-09T08:00:03.326Z,15.71
2024-05-09T08:01:05.231Z,15.73
2024-05-09T08:02:08.871Z,15.75
2024-05-09T08:03:10.641Z,15.74
2024-05-09T08:04:12.322Z,15.77
2024-05-09T08:05:14.144Z,15.80
2024-05-09T08:06:15.810Z,15.86
2024-05-09T08:07:18.370Z,15.93
2024-05-09T08:08:19.921Z,16.04
2024-05-09T08:09:21.809Z,16.14
2024-05-09T08:10:28.459Z,16.20
2024-05-09T08:11:31.968Z,16.25
2024-05-09T08:12:33.705Z,16.26
2024-05-09T08:13:35.206Z,16.42
2024-05-09T08:14:36.756Z,16.47
2024-05-09T08:15:38.818Z,16.45
2024-05-09T08:16:40.393Z,16.40
2024-05-09T08:17:41.967Z,16.32
2024-05-09T08:18:43.610Z,16.26
2024-05-09T08:19:45.304Z,16.26
2024-05-09T08:20:49.000Z,16.25
2024-05-09T08:21:50.600Z,16.24
2024-05-09T08:22:52.208Z,16.20
2024-05-09T08:23:54.099Z,16.16
2024-05-09T08:24:55.771Z,16.29
2024-05-09T08:25:57.765Z,16.41
2024-05-09T08:26:59.253Z,16.54
2024-05-09T08:28:03.558Z,16.64
2024-05-09T08:29:05.083Z,16.70
2024-05-09T08:30:10.190Z,16.71
2024-05-09T08:31:14.276Z,16.66
2024-05-09T08:32:16.058Z,16.59
2024-05-09T08:33:18.653Z,16.55
2024-05-09T08:34:20.527Z,16.51
2024-05-09T08:35:22.173Z,16.41
2024-05-09T08:36:23.751Z,16.35
2024-05-09T08:37:29.443Z,16.37
2024-05-09T08:38:36.480Z,16.40
2024-05-09T08:39:38.193Z,16.42
2024-05-09T08:40:41.135Z,16.43
2024-05-09T08:41:49.079Z,16.44
2024-05-09T08:42:55.469Z,16.48
2024-05-09T08:43:57.193Z,16.54
2024-05-09T08:44:58.762Z,16.65
2024-05-09T08:46:02.459Z,16.74
2024-05-09T08:47:08.385Z,16.78
2024-05-09T08:48:12.293Z,16.82
2024-05-09T08:49:15.564Z,16.84
2024-05-09T08:50:28.392Z,16.86
2024-05-09T08:51:39.622Z,16.95
2024-05-09T08:52:41.528Z,17.00
2024-05-09T08:53:43.171Z,17.05
2024-05-09T08:54:45.083Z,17.07
2024-05-09T08:55:50.577Z,17.18
2024-05-09T08:56:52.541Z,17.17
2024-05-09T08:57:55.253Z,17.31
2024-05-09T08:59:01.050Z,17.31
2024-05-09T09:00:10.004Z,17.30
2024-05-09T09:01:17.368Z,17.34
2024-05-09T09:02:21.756Z,17.41
2024-05-09T09:03:27.075Z,17.49
2024-05-09T09:04:30.503Z,17.56
2024-05-09T09:05:37.709Z,17.65
2024-05-09T09:06:39.935Z,17.72
2024-05-09T09:07:47.552Z,17.76
2024-05-09T09:08:49.768Z,17.72
2024-05-09T09:09:51.919Z,17.57
2024-05-09T09:10:57.455Z,17.45
2024-05-09T09:11:59.625Z,17.42
2024-05-09T09:13:03.307Z,17.46
2024-05-09T09:14:04.818Z,17.46
2024-05-09T09:15:06.332Z,17.35
2024-05-09T09:16:08.052Z,17.24
2024-05-09T09:17:16.316Z,17.22
2024-05-09T09:18:18.259Z,17.29
2024-05-09T09:19:22.390Z,17.34
2024-05-09T09:20:35.350Z,17.41
2024-05-09T09:21:38.326Z,17.46
2024-05-09T09:22:40.095Z,17.45
2024-05-09T09:23:42.596Z,17.46
2024-05-09T09:24:44.649Z,17.52
2024-05-09T09:25:46.620Z,17.52
2024-05-09T09:26:48.250Z,17.44
2024-05-09T09:27:50.095Z,17.33
2024-05-09T09:28:51.734Z,17.23
2024-05-09T09:29:55.913Z,17.18
2024-05-09T09:31:05.019Z,17.15
2024-05-09T09:32:07.840Z,17.19
2024-05-09T09:33:10.554Z,17.32
2024-05-09T09:34:12.522Z,17.48
2024-05-09T09:35:14.245Z,17.59
2024-05-09T09:36:17.575Z,17.80
2024-05-09T09:37:27.999Z,17.85
2024-05-09T09:38:31.640Z,17.87
2024-05-09T09:39:35.126Z,17.91
2024-05-09T09:40:44.925Z,18.01
2024-05-09T09:41:53.821Z,18.16
2024-05-09T09:42:57.026Z,18.26
2024-05-09T09:44:01.564Z,18.29
2024-05-09T09:45:05.395Z,18.28
2024-05-09T09:46:10.732Z,18.29
2024-05-09T09:47:16.600Z,18.14
2024-05-09T09:48:20.580Z,18.16
2024-05-09T09:49:26.727Z,18.16
2024-05-09T09:50:34.219Z,18.25
2024-05-09T09:51:42.910Z,18.38
2024-05-09T09:52:45.733Z,18.48
2024-05-09T09:53:51.614Z,18.55
2024-05-09T09:54:54.991Z,18.63
2024-05-09T09:55:58.233Z,18.67
2024-05-09T09:57:02.408Z,18.65
2024-05-09T09:58:04.190Z,18.62
2024-05-09T09:59:06.183Z,18.61
2024-05-09T10:00:11.884Z,18.59
2024-05-09T10:01:16.451Z,18.60
2024-05-09T10:02:18.374Z,18.56
2024-05-09T10:03:20.246Z,18.47
2024-05-09T10:04:23.210Z,18.49
2024-05-09T10:05:25.923Z,18.46
2024-05-09T10:06:30.603Z,18.39
2024-05-09T10:07:35.054Z,18.35
2024-05-09T10:08:37.730Z,18.48
2024-05-09T10:09:39.606Z,18.45
2024-05-09T10:10:46.594Z,18.44
2024-05-09T10:11:52.417Z,18.50
2024-05-09T10:12:59.072Z,18.58
2024-05-09T10:14:01.160Z,18.64
2024-05-09T10:15:08.343Z,18.73
2024-05-09T10:16:10.808Z,18.86
2024-05-09T10:17:12.458Z,18.94
2024-05-09T10:18:14.638Z,19.01
2024-05-09T10:19:24.032Z,19.06
2024-05-09T10:20:30.816Z,19.00
2024-05-09T10:21:46.027Z,18.98
2024-05-09T10:22:49.622Z,19.04
2024-05-09T10:23:57.075Z,19.15
2024-05-09T10:25:06.571Z,19.32
2024-05-09T10:26:08.178Z,19.48
2024-05-09T10:27:09.892Z,19.53
2024-05-09T10:28:11.653Z,19.50
2024-05-09T10:29:16.846Z,19.43
2024-05-09T10:30:29.771Z,19.37
2024-05-09T10:31:44.848Z,19.36
2024-05-09T10:32:46.632Z,19.38
2024-05-09T10:33:51.934Z,19.32
2024-05-09T10:35:21.863Z,19.41
2024-05-09T10:36:28.049Z,19.49
2024-05-09T10:37:30.723Z,19.53
2024-05-09T10:38:33.386Z,19.53
2024-05-09T10:39:36.554Z,19.53
2024-05-09T10:40:39.231Z,19.59
2024-05-09T10:41:40.825Z,19.65
2024-05-09T10:42:42.766Z,19.74
2024-05-09T10:43:44.933Z,19.89
2024-05-09T10:44:46.569Z,20.06
2024-05-09T10:45:48.566Z,20.11
2024-05-09T10:46:50.647Z,20.11
2024-05-09T10:47:52.465Z,20.11
2024-05-09T10:48:57.130Z,20.10
2024-05-09T10:49:58.935Z,20.08
2024-05-09T10:51:00.740Z,20.09
2024-05-09T10:52:03.531Z,20.10
2024-05-09T10:53:05.081Z,20.00
2024-05-09T10:54:06.997Z,19.99
2024-05-09T10:55:08.667Z,19.93
2024-05-09T10:56:13.612Z,19.83
2024-05-09T10:57:15.700Z,19.76
2024-05-09T10:58:17.415Z,19.65
2024-05-09T10:59:19.110Z,19.55
2024-05-09T11:00:27.525Z,19.49
2024-05-09T11:01:37.496Z,19.37
2024-05-09T11:02:39.632Z,19.28
2024-05-09T11:03:46.004Z,19.22
2024-05-09T11:04:48.988Z,19.17
2024-05-09T11:05:55.011Z,19.16
2024-05-09T11:06:59.580Z,19.23
2024-05-09T11:08:02.261Z,19.30
2024-05-09T11:09:05.327Z,19.40
2024-05-09T11:10:12.256Z,19.49
2024-05-09T11:11:14.845Z,19.57
2024-05-09T11:12:16.707Z,19.70
2024-05-09T11:13:31.400Z,19.91
2024-05-09T11:14:33.646Z,20.14
2024-05-09T11:15:42.290Z,20.24
2024-05-09T11:16:43.882Z,20.24
2024-05-09T11:17:45.504Z,20.15
2024-05-09T11:18:55.546Z,20.02
2024-05-09T11:19:57.329Z,19.86
2024-05-09T11:20:58.987Z,19.73
2024-05-09T11:22:03.247Z,19.59
2024-05-09T11:23:06.294Z,19.47
2024-05-09T11:24:11.022Z,19.38
2024-05-09T11:25:13.296Z,19.36
2024-05-09T11:26:18.484Z,19.42
2024-05-09T11:27:21.126Z,19.49
2024-05-09T11:28:23.283Z,19.50
2024-05-09T11:29:38.949Z,19.44
2024-05-09T11:30:40.655Z,19.37
2024-05-09T11:31:46.762Z,19.31
2024-05-09T11:32:49.098Z,19.22
2024-05-09T11:33:53.967Z,19.13
2024-05-09T11:34:55.596Z,19.15
2024-05-09T11:35:57.595Z,19.15
2024-05-09T11:36:59.391Z,19.15
2024-05-09T11:38:00.947Z,19.10
2024-05-09T11:39:02.562Z,19.09
2024-05-09T11:40:07.062Z,19.14
2024-05-09T11:41:19.965Z,19.22
2024-05-09T11:42:21.722Z,19.24
2024-05-09T11:43:23.368Z,19.25
2024-05-09T11:44:26.025Z,19.26
2024-05-09T11:45:27.809Z,19.31
2024-05-09T11:46:29.510Z,19.38
2024-05-09T11:47:31.426Z,19.40
2024-05-09T11:48:33.223Z,19.35
2024-05-09T11:49:35.036Z,19.32
2024-05-09T11:50:36.864Z,19.37
2024-05-09T11:51:38.520Z,19.51
2024-05-09T11:52:42.900Z,19.69
2024-05-09T11:53:44.572Z,20.10
2024-05-09T11:54:46.222Z,20.46
2024-05-09T11:55:47.874Z,20.80
2024-05-09T11:56:50.805Z,21.09
2024-05-09T11:57:52.661Z,21.28
2024-05-09T11:58:54.773Z,21.37
2024-05-09T11:59:56.635Z,21.39
2024-05-09T12:00:58.336Z,21.35
2024-05-09T12:02:00.184Z,21.27
2024-05-09T12:03:03.645Z,21.16
2024-05-09T12:04:05.613Z,21.07
2024-05-09T12:05:07.458Z,20.98
2024-05-09T12:06:09.399Z,21.03
2024-05-09T12:07:13.021Z,21.14
2024-05-09T12:08:14.821Z,21.18
2024-05-09T12:09:17.129Z,21.12
2024-05-09T12:10:22.428Z,21.09
2024-05-09T12:11:27.934Z,21.09
2024-05-09T12:12:29.663Z,21.05
2024-05-09T12:13:31.198Z,20.87
2024-05-09T12:14:32.827Z,20.66
2024-05-09T12:15:35.510Z,20.59
2024-05-09T12:16:37.201Z,20.57
2024-05-09T12:17:38.801Z,20.49
2024-05-09T12:18:40.439Z,20.37
2024-05-09T12:19:42.096Z,20.20
2024-05-09T12:20:43.860Z,19.99
2024-05-09T12:21:45.492Z,19.83
2024-05-09T12:22:47.483Z,19.68
2024-05-09T12:23:49.023Z,19.56
2024-05-09T12:24:50.630Z,19.52
2024-05-09T12:25:52.894Z,19.51
2024-05-09T12:26:54.823Z,19.43
2024-05-09T12:27:56.434Z,19.30
2024-05-09T12:28:57.985Z,19.16
2024-05-09T12:29:59.540Z,19.06
2024-05-09T12:31:01.179Z,19.05
2024-05-09T12:32:03.103Z,19.07
2024-05-09T12:33:05.822Z,19.11
2024-05-09T12:34:07.807Z,19.15
2024-05-09T12:35:09.382Z,19.18
2024-05-09T12:36:10.921Z,19.32
2024-05-09T12:37:13.136Z,19.46
2024-05-09T12:38:15.375Z,19.61
2024-05-09T12:39:17.085Z,19.83
2024-05-09T12:40:26.625Z,20.03
2024-05-09T12:41:38.163Z,20.24
2024-05-09T12:42:39.859Z,20.34
2024-05-09T12:43:41.463Z,20.46
2024-05-09T12:44:43.026Z,20.52
2024-05-09T12:45:45.075Z,20.48
2024-05-09T12:46:46.648Z,20.42
2024-05-09T12:47:48.430Z,20.51
2024-05-09T12:48:50.308Z,20.74
2024-05-09T12:49:52.257Z,21.09
2024-05-09T12:50:56.653Z,21.43
2024-05-09T12:51:58.170Z,21.71
2024-05-09T12:53:00.058Z,21.95
2024-05-09T12:54:01.619Z,22.15
2024-05-09T12:55:03.776Z,22.41
2024-05-09T12:56:07.238Z,22.76
2024-05-09T12:57:10.446Z,23.10
2024-05-09T12:58:13.602Z,23.26
2024-05-09T12:59:15.356Z,23.24
2024-05-09T13:00:23.811Z,23.00
2024-05-09T13:01:30.162Z,22.38
2024-05-09T13:02:31.953Z,21.96
2024-05-09T13:03:33.826Z,21.67
2024-05-09T13:04:35.736Z,21.52
2024-05-09T13:05:37.549Z,21.49
2024-05-09T13:06:39.361Z,21.52
2024-05-09T13:07:41.003Z,21.59
2024-05-09T13:08:42.753Z,21.61
2024-05-09T13:09:44.705Z,21.53
2024-05-09T13:10:47.125Z,21.45
2024-05-09T13:11:48.842Z,21.36
2024-05-09T13:12:50.458Z,21.22
2024-05-09T13:13:52.136Z,21.05
2024-05-09T13:14:53.868Z,20.86
2024-05-09T13:15:55.465Z,20.70
2024-05-09T13:16:57.191Z,20.57
2024-05-09T13:18:02.254Z,20.47
2024-05-09T13:19:05.353Z,20.38
2024-05-09T13:20:11.975Z,20.34
2024-05-09T13:21:19.906Z,20.36
2024-05-09T13:22:21.517Z,20.35
2024-05-09T13:23:23.105Z,20.29
2024-05-09T13:24:24.835Z,20.25
2024-05-09T13:25:26.411Z,20.21
2024-05-09T13:26:28.264Z,20.07
2024-05-09T13:27:29.907Z,20.00
2024-05-09T13:28:32.846Z,20.01
2024-05-09T13:29:34.522Z,20.17
2024-05-09T13:30:40.624Z,20.46
2024-05-09T13:31:43.664Z,21.01
2024-05-09T13:32:45.676Z,21.55
2024-05-09T13:33:47.458Z,22.06
2024-05-09T13:34:49.354Z,22.44
2024-05-09T13:35:51.297Z,22.62
2024-05-09T13:36:53.055Z,22.80
2024-05-09T13:37:55.375Z,22.92
2024-05-09T13:38:58.404Z,22.89
2024-05-09T13:40:00.971Z,22.84
2024-05-09T13:41:02.699Z,22.85
2024-05-09T13:42:04.460Z,23.11
2024-05-09T13:43:06.312Z,23.44
2024-05-09T13:44:08.920Z,23.59
2024-05-09T13:45:10.541Z,23.76
2024-05-09T13:46:12.190Z,23.81
2024-05-09T13:47:14.017Z,23.95
2024-05-09T13:48:15.780Z,24.21
2024-05-09T13:49:17.703Z,24.48